createdAt,value
2023-04-18T00:00:48.883Z,63.53
2023-04-18T00:03:22.039Z,63.60
2023-04-18T00:05:51.315Z,63.47
2023-04-18T00:08:20.064Z,63.59
2023-04-18T00:10:49.011Z,64.59
2023-04-18T00:13:18.464Z,63.66
2023-04-18T00:15:47.500Z,63.25
2023-04-18T00:18:17.402Z,63.92
2023-04-18T00:20:47.963Z,63.75
2023-04-18T00:23:16.513Z,63.30
2023-04-18T00:25:45.528Z,63.25
2023-04-18T00:28:14.225Z,62.90
2023-04-18T00:30:43.164Z,64.10
2023-04-18T00:33:11.759Z,63.57
2023-04-18T00:35:40.947Z,63.50
2023-04-18T00:38:11.234Z,62.98
2023-04-18T00:40:41.933Z,62.99
2023-04-18T00:43:10.509Z,63.89
2023-04-18T00:45:43.075Z,63.25
2023-04-18T00:48:12.879Z,63.84
2023-04-18T00:50:41.943Z,63.16
2023-04-18T00:53:12.510Z,62.43
2023-04-18T00:55:42.272Z,62.63
2023-04-18T00:58:10.931Z,62.27
2023-04-18T01:00:39.747Z,61.67
2023-04-18T01:03:10.732Z,61.35
2023-04-18T01:05:40.165Z,60.94
2023-04-18T01:08:08.730Z,60.59
2023-04-18T01:10:39.022Z,60.55
2023-04-18T01:13:18.258Z,60.08
2023-04-18T01:15:49.884Z,60.52
2023-04-18T01:18:19.307Z,60.58
2023-04-18T01:20:49.956Z,60.76
2023-04-18T01:23:19.862Z,60.03
2023-04-18T01:25:50.610Z,59.91
2023-04-18T01:28:21.406Z,60.78
2023-04-18T01:30:50.740Z,60.55
2023-04-18T01:33:19.403Z,59.83
2023-04-18T01:35:49.950Z,61.13
2023-04-18T01:38:18.516Z,61.16
2023-04-18T01:40:47.905Z,60.51
2023-04-18T01:43:18.238Z,61.28
2023-04-18T01:45:47.225Z,61.31
2023-04-18T01:48:15.819Z,60.74
2023-04-18T01:50:45.304Z,60.81
2023-04-18T01:53:14.443Z,60.56
2023-04-18T01:55:46.141Z,60.64
2023-04-18T01:58:15.750Z,59.25
2023-04-18T02:00:46.272Z,60.47
2023-04-18T02:03:15.051Z,60.26
2023-04-18T02:05:44.277Z,59.58
2023-04-18T02:08:13.034Z,59.55
2023-04-18T02:10:42.730Z,60.04
2023-04-18T02:13:11.376Z,60.02
2023-04-18T02:15:40.362Z,60.24
2023-04-18T02:18:11.641Z,60.13
2023-04-18T02:20:41.886Z,60.63
2023-04-18T02:23:10.917Z,60.09
2023-04-18T02:25:39.752Z,59.75
2023-04-18T02:28:08.363Z,59.57
2023-04-18T02:30:37.202Z,59.68
2023-04-18T02:33:05.790Z,60.16
2023-04-18T02:35:38.387Z,59.91
2023-04-18T02:38:06.924Z,60.33
2023-04-18T02:40:35.887Z,60.72
2023-04-18T02:43:04.460Z,60.36
2023-04-18T02:45:33.816Z,60.09
2023-04-18T02:48:02.650Z,59.96
2023-04-18T02:50:32.188Z,60.02
2023-04-18T02:53:02.297Z,59.40
2023-04-18T02:55:43.759Z,59.80
2023-04-18T02:58:13.345Z,59.44
2023-04-18T03:01:00.694Z,59.00
2023-04-18T03:03:46.633Z,58.19
2023-04-18T03:06:27.332Z,58.73
2023-04-18T03:08:57.572Z,58.54
2023-04-18T03:11:27.803Z,58.55
2023-04-18T03:13:57.700Z,58.64
2023-04-18T03:16:32.322Z,58.70
2023-04-18T03:19:01.602Z,58.19
2023-04-18T03:21:31.573Z,58.46
2023-04-18T03:24:01.707Z,58.21
2023-04-18T03:26:30.717Z,58.05
2023-04-18T03:28:59.389Z,58.43
2023-04-18T03:31:28.319Z,58.51
2023-04-18T03:33:57.255Z,58.76
2023-04-18T03:36:27.386Z,58.45
2023-04-18T03:38:56.627Z,59.35
2023-04-18T03:41:28.215Z,58.57
2023-04-18T03:43:59.076Z,58.53
2023-04-18T03:46:29.150Z,58.88
2023-04-18T03:48:58.923Z,58.65
2023-04-18T03:51:28.598Z,58.13
2023-04-18T03:53:58.158Z,57.88
2023-04-18T03:56:28.541Z,57.73
2023-04-18T03:58:58.965Z,58.45
2023-04-18T04:01:28.505Z,57.51
2023-04-18T04:03:57.307Z,56.98
2023-04-18T04:06:27.453Z,57.19
2023-04-18T04:08:56.647Z,56.95
2023-04-18T04:11:29.207Z,56.81
2023-04-18T04:13:57.933Z,56.92
2023-04-18T04:16:32.962Z,57.05
2023-04-18T04:19:02.178Z,57.73
2023-04-18T04:21:38.561Z,57.77
2023-04-18T04:24:10.098Z,57.23
2023-04-18T04:26:44.237Z,57.24
2023-04-18T04:29:16.450Z,56.94
2023-04-18T04:31:48.320Z,57.92
2023-04-18T04:34:25.588Z,57.67
2023-04-18T04:36:56.187Z,57.42
2023-04-18T04:39:26.683Z,57.34
2023-04-18T04:42:17.728Z,57.25
2023-04-18T04:44:55.885Z,57.43
2023-04-18T04:47:26.435Z,56.95
2023-04-18T04:49:56.174Z,57.25
2023-04-18T04:52:25.124Z,56.80
2023-04-18T04:54:53.757Z,56.67
2023-04-18T04:57:26.894Z,56.70
2023-04-18T04:59:55.493Z,57.26
2023-04-18T05:02:25.111Z,56.41
2023-04-18T05:04:53.783Z,56.26
2023-04-18T05:07:22.701Z,56.42
2023-04-18T05:09:53.216Z,55.69
2023-04-18T05:12:22.135Z,55.12
2023-04-18T05:14:52.160Z,55.26
2023-04-18T05:17:21.030Z,55.13
2023-04-18T05:19:49.663Z,54.45
2023-04-18T05:22:18.563Z,55.50
2023-04-18T05:24:47.640Z,55.37
2023-04-18T05:27:18.112Z,55.17
2023-04-18T05:29:47.852Z,55.12
2023-04-18T05:32:18.272Z,54.61
2023-04-18T05:34:46.988Z,54.27
2023-04-18T05:37:16.263Z,54.12
2023-04-18T05:39:45.054Z,54.60
2023-04-18T05:42:14.050Z,54.52
2023-04-18T05:44:42.619Z,54.47
2023-04-18T05:47:11.501Z,54.68
2023-04-18T05:49:41.565Z,54.87
2023-04-18T05:52:11.430Z,54.54
2023-04-18T05:54:40.075Z,55.08
2023-04-18T05:57:08.953Z,55.55
2023-04-18T05:59:37.734Z,55.55
2023-04-18T06:02:13.151Z,54.60
2023-04-18T06:04:44.157Z,54.63
2023-04-18T06:07:13.313Z,54.61
2023-04-18T06:09:42.146Z,54.65
2023-04-18T06:12:11.264Z,53.97
2023-04-18T06:14:40.020Z,54.18
2023-04-18T06:17:10.196Z,54.39
2023-04-18T06:19:40.580Z,53.95
2023-04-18T06:22:10.935Z,53.80
2023-04-18T06:24:39.686Z,54.18
2023-04-18T06:27:15.041Z,53.63
2023-04-18T06:29:49.318Z,53.36
2023-04-18T06:32:18.401Z,52.61
2023-04-18T06:34:47.034Z,53.03
2023-04-18T06:37:18.007Z,52.69
2023-04-18T06:39:46.909Z,52.53
2023-04-18T06:42:15.956Z,52.63
2023-04-18T06:44:49.554Z,52.30
2023-04-18T06:47:18.655Z,52.23
2023-04-18T06:49:47.415Z,52.66
2023-04-18T06:52:17.625Z,52.10
2023-04-18T06:54:46.165Z,51.51
2023-04-18T06:57:15.313Z,51.97
2023-04-18T06:59:44.025Z,50.93
2023-04-18T07:02:13.400Z,51.10
2023-04-18T07:04:42.354Z,50.39
2023-04-18T07:07:11.471Z,50.26
2023-04-18T07:09:41.508Z,50.67
2023-04-18T07:12:10.480Z,50.63
2023-04-18T07:14:39.119Z,50.05
2023-04-18T07:17:08.686Z,50.22
2023-04-18T07:19:37.390Z,49.82
2023-04-18T07:22:06.433Z,49.88
2023-04-18T07:24:35.130Z,50.69
2023-04-18T07:27:05.808Z,50.50
2023-04-18T07:29:34.457Z,51.33
2023-04-18T07:32:05.171Z,51.24
2023-04-18T07:34:36.364Z,50.68
2023-04-18T07:37:05.392Z,50.71
2023-04-18T07:39:36.159Z,51.24
2023-04-18T07:42:06.983Z,51.31
2023-04-18T07:44:36.789Z,51.17
2023-04-18T07:47:10.027Z,51.78
2023-04-18T07:49:39.490Z,51.30
2023-04-18T07:52:08.604Z,50.84
2023-04-18T07:54:37.203Z,50.53
2023-04-18T07:57:07.497Z,50.65
2023-04-18T07:59:36.296Z,50.08
2023-04-18T08:02:05.270Z,49.60
2023-04-18T08:04:34.335Z,48.80
2023-04-18T08:07:03.370Z,49.74
2023-04-18T08:09:31.999Z,49.43
2023-04-18T08:12:01.059Z,49.22
2023-04-18T08:14:31.268Z,48.44
2023-04-18T08:17:01.623Z,49.09
2023-04-18T08:19:30.925Z,48.60
2023-04-18T08:22:10.488Z,47.32
2023-04-18T08:24:40.115Z,47.61
2023-04-18T08:27:09.118Z,46.88
2023-04-18T08:29:39.294Z,46.88
2023-04-18T08:32:09.380Z,46.28
2023-04-18T08:34:38.276Z,46.79
2023-04-18T08:37:07.393Z,46.70
2023-04-18T08:39:36.271Z,46.20
2023-04-18T08:42:07.716Z,45.73
2023-04-18T08:44:37.394Z,45.37
2023-04-18T08:47:09.523Z,45.52
2023-04-18T08:49:38.281Z,45.67
2023-04-18T08:52:12.603Z,44.86
2023-04-18T08:54:44.324Z,45.81
2023-04-18T08:57:16.589Z,45.68
2023-04-18T08:59:49.641Z,45.15
2023-04-18T09:02:23.446Z,45.29
2023-04-18T09:04:53.870Z,45.09
2023-04-18T09:07:30.163Z,45.15
2023-04-18T09:09:59.623Z,44.95
2023-04-18T09:12:32.860Z,44.41
2023-04-18T09:15:13.906Z,44.30
2023-04-18T09:17:49.778Z,44.16
2023-04-18T09:20:34.679Z,44.54
2023-04-18T09:23:05.622Z,44.42
2023-04-18T09:25:40.103Z,43.81
2023-04-18T09:28:24.743Z,43.89
2023-04-18T09:30:54.803Z,43.95
2023-04-18T09:33:29.584Z,43.82
2023-04-18T09:36:16.771Z,43.01
2023-04-18T09:38:46.415Z,42.87
2023-04-18T09:41:19.931Z,42.85
2023-04-18T09:43:50.677Z,42.63
2023-04-18T09:46:22.609Z,42.06
2023-04-18T09:48:53.177Z,42.30
2023-04-18T09:51:21.798Z,41.92
2023-04-18T09:53:51.164Z,41.83
2023-04-18T09:56:25.900Z,41.42
2023-04-18T09:58:58.303Z,41.27
2023-04-18T10:01:29.715Z,40.82
2023-04-18T10:04:04.298Z,41.03
2023-04-18T10:06:38.562Z,41.41
2023-04-18T10:09:10.909Z,41.52
2023-04-18T10:11:39.783Z,41.23
2023-04-18T10:14:12.751Z,41.31
2023-04-18T10:16:43.301Z,40.99
2023-04-18T10:19:31.886Z,39.89
2023-04-18T10:22:01.613Z,39.98
2023-04-18T10:24:48.362Z,40.40
2023-04-18T10:27:17.552Z,40.21
2023-04-18T10:29:50.923Z,40.13
2023-04-18T10:32:20.709Z,40.04
2023-04-18T10:34:53.546Z,40.20
2023-04-18T10:37:22.114Z,39.72
2023-04-18T10:39:57.061Z,39.11
2023-04-18T10:42:58.993Z,38.97
2023-04-18T10:45:31.424Z,39.43
2023-04-18T10:48:30.071Z,38.97
2023-04-18T10:51:24.334Z,39.28
2023-04-18T10:53:55.300Z,39.38
2023-04-18T10:56:26.353Z,39.30
2023-04-18T10:58:57.417Z,38.87
2023-04-18T11:01:32.185Z,39.30
2023-04-18T11:04:02.047Z,39.17
2023-04-18T11:06:32.646Z,38.85
2023-04-18T11:09:11.781Z,39.72
2023-04-18T11:11:41.511Z,39.93
2023-04-18T11:14:10.281Z,40.57
2023-04-18T11:16:39.326Z,40.73
2023-04-18T11:19:23.346Z,40.46
2023-04-18T11:21:54.247Z,40.33
2023-04-18T11:24:24.386Z,41.06
2023-04-18T11:26:55.938Z,40.85
2023-04-18T11:29:24.980Z,41.21
2023-04-18T11:31:58.303Z,40.90
2023-04-18T11:34:30.568Z,40.94
2023-04-18T11:37:00.890Z,40.51
2023-04-18T11:39:29.599Z,40.21
2023-04-18T11:42:01.809Z,40.59
2023-04-18T11:44:30.494Z,40.54
2023-04-18T11:46:59.257Z,40.06
2023-04-18T11:49:29.410Z,40.47
2023-04-18T11:51:58.791Z,40.80
2023-04-18T11:54:39.753Z,40.79
2023-04-18T11:57:20.570Z,40.84
2023-04-18T11:59:51.254Z,41.63
2023-04-18T12:02:20.721Z,41.35
2023-04-18T12:04:57.758Z,41.40
2023-04-18T12:07:38.217Z,41.10
2023-04-18T12:10:10.448Z,41.41
2023-04-18T12:12:48.583Z,41.61
2023-04-18T12:15:18.440Z,41.92
2023-04-18T12:17:49.369Z,41.75
2023-04-18T12:20:18.467Z,42.25
2023-04-18T12:22:49.757Z,41.60
2023-04-18T12:25:26.209Z,41.98
2023-04-18T12:27:59.207Z,42.26
2023-04-18T12:30:29.858Z,41.89
2023-04-18T12:33:01.103Z,41.09
2023-04-18T12:35:31.272Z,41.55
2023-04-18T12:38:03.632Z,41.12
2023-04-18T12:40:33.529Z,41.29
2023-04-18T12:43:03.693Z,40.89
2023-04-18T12:45:32.657Z,40.60
2023-04-18T12:48:02.240Z,40.64
2023-04-18T12:50:31.085Z,40.47
2023-04-18T12:53:01.560Z,40.12
2023-04-18T12:55:30.730Z,39.76
2023-04-18T12:58:01.444Z,39.47
2023-04-18T13:00:33.260Z,39.25
2023-04-18T13:03:11.779Z,38.79
2023-04-18T13:05:42.778Z,38.97
2023-04-18T13:08:17.101Z,38.84
2023-04-18T13:10:47.756Z,38.08
2023-04-18T13:13:18.263Z,37.83
2023-04-18T13:15:47.038Z,38.19
2023-04-18T13:18:16.106Z,38.01
2023-04-18T13:20:45.051Z,37.75
2023-04-18T13:23:14.092Z,37.43
2023-04-18T13:25:44.900Z,37.45
2023-04-18T13:28:13.957Z,37.15
2023-04-18T13:30:43.982Z,37.71
2023-04-18T13:33:13.123Z,37.40
2023-04-18T13:35:42.226Z,37.31
2023-04-18T13:38:11.166Z,37.99
2023-04-18T13:40:39.919Z,38.02
2023-04-18T13:43:11.055Z,37.72
2023-04-18T13:45:39.941Z,37.81
2023-04-18T13:48:13.840Z,38.38
2023-04-18T13:50:43.761Z,38.04
2023-04-18T13:53:12.882Z,38.04
2023-04-18T13:55:42.452Z,38.08
2023-04-18T13:58:11.534Z,37.77
2023-04-18T14:00:40.133Z,37.87
2023-04-18T14:03:09.338Z,37.68
2023-04-18T14:05:39.379Z,37.71
2023-04-18T14:08:08.862Z,37.69
2023-04-18T14:10:37.792Z,38.45
2023-04-18T14:13:06.777Z,38.45
2023-04-18T14:15:35.602Z,38.33
2023-04-18T14:18:05.181Z,38.80
2023-04-18T14:20:35.254Z,38.70
2023-04-18T14:23:06.640Z,38.84
2023-04-18T14:25:35.365Z,38.95
2023-04-18T14:28:09.754Z,39.17
2023-04-18T14:30:39.156Z,38.93
2023-04-18T14:33:09.497Z,39.05
2023-04-18T14:35:38.559Z,39.16
2023-04-18T14:38:09.005Z,39.18
2023-04-18T14:40:38.150Z,39.00
2023-04-18T14:43:07.351Z,39.28
2023-04-18T14:45:36.142Z,39.26
2023-04-18T14:48:06.813Z,39.14
2023-04-18T14:50:38.684Z,39.28
2023-04-18T14:53:09.504Z,39.09
2023-04-18T14:55:38.864Z,39.39
2023-04-18T14:58:08.083Z,39.10
2023-04-18T15:00:37.603Z,38.31
2023-04-18T15:03:09.766Z,37.92
2023-04-18T15:05:42.996Z,37.97
2023-04-18T15:08:14.744Z,37.44
2023-04-18T15:10:44.792Z,37.63
2023-04-18T15:13:14.712Z,37.25
2023-04-18T15:15:43.466Z,36.81
2023-04-18T15:18:13.858Z,36.73
2023-04-18T15:21:03.078Z,36.41
2023-04-18T15:23:34.852Z,36.93
2023-04-18T15:26:04.968Z,36.96
2023-04-18T15:28:34.548Z,36.79
2023-04-18T15:31:03.291Z,37.29
2023-04-18T15:33:32.441Z,37.21
2023-04-18T15:36:01.089Z,37.21
2023-04-18T15:38:33.368Z,37.21
2023-04-18T15:41:03.899Z,37.15
2023-04-18T15:43:32.954Z,37.31
2023-04-18T15:46:02.011Z,37.12
2023-04-18T15:48:34.190Z,37.11
2023-04-18T15:51:03.302Z,37.65
2023-04-18T15:53:32.734Z,37.61
2023-04-18T15:56:02.222Z,37.69
2023-04-18T15:58:32.672Z,37.67
2023-04-18T16:01:02.111Z,37.48
2023-04-18T16:03:31.795Z,37.77
2023-04-18T16:06:00.869Z,37.62
2023-04-18T16:08:32.603Z,37.69
2023-04-18T16:11:02.046Z,37.56
2023-04-18T16:13:38.313Z,37.84
2023-04-18T16:16:07.770Z,37.82
2023-04-18T16:18:36.789Z,37.94
2023-04-18T16:21:05.971Z,38.49
2023-04-18T16:23:35.057Z,38.76
2023-04-18T16:26:03.846Z,38.53
2023-04-18T16:28:37.718Z,38.73
2023-04-18T16:31:06.872Z,39.31
2023-04-18T16:33:35.942Z,40.37
2023-04-18T16:36:05.541Z,40.15
2023-04-18T16:38:34.999Z,40.56
2023-04-18T16:41:04.114Z,40.99
2023-04-18T16:43:36.642Z,41.31
2023-04-18T16:46:05.738Z,41.43
2023-04-18T16:48:37.855Z,41.67
2023-04-18T16:51:06.904Z,41.82
2023-04-18T16:53:36.111Z,42.39
2023-04-18T16:56:05.088Z,42.73
2023-04-18T16:58:35.965Z,43.25
2023-04-18T17:01:05.105Z,42.90
2023-04-18T17:03:34.218Z,42.59
2023-04-18T17:06:03.310Z,42.34
2023-04-18T17:08:33.693Z,42.28
2023-04-18T17:11:05.475Z,42.63
2023-04-18T17:13:36.414Z,42.80
2023-04-18T17:16:06.164Z,42.76
2023-04-18T17:18:35.715Z,43.05
2023-04-18T17:21:04.698Z,43.12
2023-04-18T17:23:34.777Z,43.20
2023-04-18T17:26:03.488Z,43.01
2023-04-18T17:28:33.590Z,43.44
2023-04-18T17:31:03.970Z,43.35
2023-04-18T17:33:33.635Z,43.39
2023-04-18T17:36:03.287Z,43.76
2023-04-18T17:38:34.150Z,44.23
2023-04-18T17:41:04.657Z,44.00
2023-04-18T17:43:33.650Z,44.76
2023-04-18T17:46:03.884Z,44.73
2023-04-18T17:48:33.006Z,44.72
2023-04-18T17:51:02.124Z,44.85
2023-04-18T17:53:32.279Z,45.08
2023-04-18T17:56:01.312Z,44.94
2023-04-18T17:58:30.452Z,45.16
2023-04-18T18:00:59.188Z,45.37
2023-04-18T18:03:29.929Z,46.02
2023-04-18T18:05:58.595Z,45.79
2023-04-18T18:08:27.985Z,46.15
2023-04-18T18:10:56.661Z,46.19
2023-04-18T18:13:25.748Z,46.66
2023-04-18T18:15:55.466Z,46.35
2023-04-18T18:18:31.513Z,46.49
2023-04-18T18:21:00.278Z,46.42
2023-04-18T18:23:29.503Z,46.71
2023-04-18T18:25:58.100Z,46.59
2023-04-18T18:28:27.330Z,46.66
2023-04-18T18:30:56.027Z,46.70
2023-04-18T18:33:25.257Z,46.69
2023-04-18T18:35:57.911Z,46.64
2023-04-18T18:38:27.662Z,46.33
2023-04-18T18:40:56.365Z,46.33
2023-04-18T18:43:26.352Z,46.32
2023-04-18T18:45:55.301Z,46.05
2023-04-18T18:48:24.616Z,46.24
2023-04-18T18:50:53.306Z,47.92
2023-04-18T18:53:23.771Z,49.50
2023-04-18T18:55:52.400Z,48.72
2023-04-18T18:58:21.678Z,49.10
2023-04-18T19:00:51.203Z,49.12
2023-04-18T19:03:21.416Z,49.05
2023-04-18T19:05:50.389Z,49.19
2023-04-18T19:08:19.343Z,49.94
2023-04-18T19:10:49.398Z,51.30
2023-04-18T19:13:20.411Z,51.25
2023-04-18T19:15:49.104Z,50.89
2023-04-18T19:18:19.559Z,50.67
2023-04-18T19:20:50.789Z,50.67
2023-04-18T19:23:19.736Z,50.44
2023-04-18T19:25:49.771Z,50.18
2023-04-18T19:28:19.131Z,49.98
2023-04-18T19:30:48.178Z,50.09
2023-04-18T19:33:17.385Z,49.88
2023-04-18T19:35:46.098Z,49.73
2023-04-18T19:38:15.170Z,49.52
2023-04-18T19:40:44.023Z,49.33
2023-04-18T19:43:14.452Z,49.31
2023-04-18T19:45:43.439Z,49.33
2023-04-18T19:48:12.346Z,49.04
2023-04-18T19:50:42.216Z,49.02
2023-04-18T19:53:12.334Z,48.99
2023-04-18T19:55:41.828Z,49.22
2023-04-18T19:58:11.071Z,52.67
2023-04-18T20:00:41.593Z,52.39
2023-04-18T20:03:11.176Z,54.03
2023-04-18T20:05:40.094Z,56.11
2023-04-18T20:08:10.229Z,58.88
2023-04-18T20:10:39.238Z,59.92
2023-04-18T20:13:08.471Z,60.41
2023-04-18T20:15:37.195Z,59.30
2023-04-18T20:18:07.779Z,57.86
2023-04-18T20:20:36.581Z,58.08
2023-04-18T20:23:05.705Z,60.14
2023-04-18T20:25:34.937Z,60.94
2023-04-18T20:28:04.143Z,63.43
2023-04-18T20:30:32.950Z,64.47
2023-04-18T20:33:02.010Z,65.42
2023-04-18T20:35:34.371Z,65.89
2023-04-18T20:38:03.267Z,67.67
2023-04-18T20:40:33.334Z,68.33
2023-04-18T20:43:03.327Z,68.88
2023-04-18T20:45:34.733Z,68.61
2023-04-18T20:48:03.918Z,67.44
2023-04-18T20:50:33.930Z,65.47
2023-04-18T20:53:04.061Z,63.71
2023-04-18T20:55:32.961Z,63.04
2023-04-18T20:58:02.051Z,61.88
2023-04-18T21:00:33.467Z,61.00
2023-04-18T21:03:02.514Z,60.26
2023-04-18T21:05:31.580Z,59.19
2023-04-18T21:08:01.978Z,59.09
2023-04-18T21:10:30.850Z,58.65
2023-04-18T21:13:00.031Z,57.96
2023-04-18T21:15:28.650Z,58.02
2023-04-18T21:17:58.202Z,57.51
2023-04-18T21:20:26.918Z,57.19
2023-04-18T21:22:55.788Z,56.71
2023-04-18T21:25:25.902Z,56.61
2023-04-18T21:27:54.940Z,56.47
2023-04-18T21:30:23.616Z,56.10
2023-04-18T21:32:52.566Z,55.94
2023-04-18T21:35:23.339Z,55.91
2023-04-18T21:37:53.867Z,55.54
2023-04-18T21:40:22.744Z,55.00
2023-04-18T21:42:53.050Z,55.09
2023-04-18T21:45:21.962Z,54.87
2023-04-18T21:47:51.136Z,54.70
2023-04-18T21:50:19.721Z,54.25
2023-04-18T21:52:48.563Z,53.98
2023-04-18T21:55:17.202Z,53.62
2023-04-18T21:57:46.175Z,53.43
2023-04-18T22:00:17.315Z,53.20
2023-04-18T22:02:47.149Z,53.32
2023-04-18T22:05:16.320Z,52.67
2023-04-18T22:07:56.895Z,53.18
2023-04-18T22:10:26.484Z,52.94
2023-04-18T22:12:56.027Z,53.18
2023-04-18T22:15:27.568Z,54.75
2023-04-18T22:17:56.539Z,56.17
2023-04-18T22:20:27.048Z,55.41
2023-04-18T22:22:56.110Z,55.16
2023-04-18T22:25:24.765Z,55.14
2023-04-18T22:27:53.821Z,54.81
2023-04-18T22:30:22.668Z,55.02
2023-04-18T22:32:52.983Z,54.79
2023-04-18T22:35:21.561Z,54.98
2023-04-18T22:37:50.411Z,54.71
2023-04-18T22:40:19.117Z,54.44
2023-04-18T22:42:48.051Z,54.75
2023-04-18T22:45:16.689Z,54.95
2023-04-18T22:47:46.376Z,54.86
2023-04-18T22:50:16.707Z,54.84
2023-04-18T22:52:46.529Z,54.92
2023-04-18T22:55:16.555Z,54.86
2023-04-18T22:57:45.473Z,56.28
2023-04-18T23:00:14.852Z,56.12
2023-04-18T23:02:44.140Z,56.33
2023-04-18T23:05:15.524Z,56.02
2023-04-18T23:07:46.132Z,56.16
2023-04-18T23:10:14.765Z,56.47
2023-04-18T23:12:43.755Z,56.92
2023-04-18T23:15:12.802Z,56.78
2023-04-18T23:17:41.870Z,56.67
2023-04-18T23:20:12.475Z,57.33
2023-04-18T23:22:41.688Z,57.85
2023-04-18T23:25:11.838Z,57.71
2023-04-18T23:27:40.794Z,57.69
2023-04-18T23:30:10.347Z,57.96
2023-04-18T23:32:39.309Z,57.74
2023-04-18T23:35:08.213Z,57.73
2023-04-18T23:37:37.272Z,58.06
2023-04-18T23:40:07.128Z,58.15
2023-04-18T23:42:37.564Z,57.69
2023-04-18T23:45:07.112Z,58.17
2023-04-18T23:47:36.472Z,59.38
2023-04-18T23:50:05.756Z,59.77
2023-04-18T23:52:34.804Z,59.23
2023-04-18T23:55:03.753Z,59.45
2023-04-18T23:57:34.350Z,60.80
